TimeMDT,TemperatureF,Dew PointF,Humidity,Sea Level PressureIn,VisibilityMPH,Wind Direction,Wind SpeedMPH,Gust SpeedMPH,PrecipitationIn,Events,Conditions,WindDirDegrees,DateUTC
12:53 AM,44.1,26.1,49,29.87,10.0,South,5.8,-,N/A,,Partly Cloudy,170,2013-04-05 06:53:00
1:53 AM,45.0,21.9,40,29.84,10.0,South,5.8,-,N/A,,Scattered Clouds,170,2013-04-05 07:53:00
2:53 AM,39.9,24.1,53,29.86,10.0,Calm,Calm,-,N/A,,Overcast,0,2013-04-05 08:53:00
3:53 AM,39.0,21.0,49,29.83,10.0,Calm,Calm,-,N/A,,Partly Cloudy,0,2013-04-05 09:53:00
4:53 AM,36.0,21.0,55,29.84,10.0,Calm,Calm,-,N/A,,Clear,0,2013-04-05 10:53:00
5:53 AM,32.0,21.0,64,29.87,10.0,SW,4.6,-,N/A,,Clear,230,2013-04-05 11:53:00
6:53 AM,33.1,23.0,66,29.87,10.0,WSW,6.9,-,N/A,,Clear,250,2013-04-05 12:53:00
7:53 AM,33.1,24.1,70,29.89,10.0,WSW,5.8,-,N/A,,Partly Cloudy,250,2013-04-05 13:53:00
8:53 AM,42.1,26.1,53,29.86,10.0,South,3.5,-,N/A,,Overcast,190,2013-04-05 14:53:00
9:53 AM,52.0,25.0,35,29.85,10.0,WSW,15.0,20.7,N/A,,Clear,240,2013-04-05 15:53:00
10:53 AM,53.1,27.0,37,29.85,10.0,SW,18.4,26.5,N/A,,Clear,230,2013-04-05 16:53:00
11:53 AM,54.0,25.0,33,29.82,10.0,SW,5.8,24.2,N/A,,Clear,230,2013-04-05 17:53:00
12:53 PM,57.9,24.1,27,29.78,10.0,SW,18.4,24.2,N/A,,Partly Cloudy,220,2013-04-05 18:53:00
1:53 PM,55.0,21.9,28,29.77,10.0,West,8.1,-,N/A,,Overcast,280,2013-04-05 19:53:00
2:53 PM,60.1,24.1,25,29.77,10.0,West,15.0,24.2,N/A,,Mostly Cloudy,280,2013-04-05 20:53:00
3:53 PM,60.1,21.9,23,29.75,10.0,West,17.3,28.8,N/A,,Partly Cloudy,280,2013-04-05 21:53:00
4:53 PM,57.9,27.0,31,29.79,10.0,WNW,12.7,25.3,N/A,,Clear,300,2013-04-05 22:53:00
5:53 PM,57.0,28.9,34,29.82,10.0,NW,11.5,-,N/A,,Partly Cloudy,310,2013-04-05 23:53:00
6:53 PM,55.0,28.9,37,29.84,10.0,WNW,10.4,-,N/A,,Partly Cloudy,300,2013-04-06 00:53:00
7:53 PM,51.1,28.9,43,29.85,10.0,NW,9.2,-,N/A,,Clear,320,2013-04-06 01:53:00
8:53 PM,46.9,30.0,52,29.84,10.0,NW,6.9,-,N/A,,Clear,310,2013-04-06 02:53:00
9:53 PM,44.1,28.9,55,29.84,10.0,Calm,Calm,-,N/A,,Clear,0,2013-04-06 03:53:00
10:53 PM,42.1,28.9,60,29.84,10.0,Calm,Calm,-,N/A,,Clear,0,2013-04-06 04:53:00
11:53 PM,37.9,28.0,68,29.87,10.0,Calm,Calm,-,N/A,,Clear,0,2013-04-06 05:53:00